Time;durP1;ratioP1;P1;durP2;ratioP2;P2;SDS_P1;SDS_P2;PMS_P1;PMS_P2;Temp;Humidity;BMP_temperature;BMP_pressure;BME280_temperature;BME280_humidity;BME280_pressure;Samples;Min_cycle;Max_cycle;Signal;HPM_P1;HPM_P2
2022/01/07 00:00:50;;;;;;;9.77;3.70;;;5.10;99.90;;;;;;6224801;22;20351;-90
2022/01/07 00:03:18;;;;;;;11.68;4.20;;;5.10;99.90;;;;;;6250126;22;20110;-90
2022/01/07 00:05:45;;;;;;;15.57;3.08;;;5.10;99.90;;;;;;6224438;22;20019;-90
2022/01/07 00:08:12;;;;;;;13.93;3.42;;;5.10;99.90;;;;;;6248989;22;20347;-90
2022/01/07 00:10:39;;;;;;;9.43;3.83;;;5.10;99.90;;;;;;6224918;22;20111;-90
2022/01/07 00:13:06;;;;;;;8.82;2.90;;;5.10;99.90;;;;;;6249617;22;20035;-90
2022/01/07 00:15:33;;;;;;;10.85;3.05;;;5.10;99.90;;;;;;6249739;22;20023;-91
2022/01/07 00:18:00;;;;;;;13.43;3.35;;;5.10;99.90;;;;;;6276535;22;20130;-90
2022/01/07 00:20:27;;;;;;;14.77;3.10;;;5.10;99.90;;;;;;6276725;22;20470;-90
2022/01/07 00:22:55;;;;;;;9.60;2.88;;;5.10;99.90;;;;;;6224684;22;20486;-90
2022/01/07 00:25:22;;;;;;;13.40;2.90;;;5.10;99.90;;;;;;6249689;22;20015;-90
2022/01/07 00:27:51;;;;;;;8.98;2.97;;;5.10;99.90;;;;;;6224599;22;20107;-90
2022/01/07 00:30:20;;;;;;;14.25;4.32;;;5.10;99.90;;;;;;6250059;22;20019;-90
2022/01/07 00:32:48;;;;;;;14.98;3.40;;;5.10;99.90;;;;;;6249140;22;20423;-90
2022/01/07 00:35:16;;;;;;;10.77;2.90;;;5.10;99.90;;;;;;6224582;22;20371;-90
2022/01/07 00:37:44;;;;;;;8.73;3.42;;;5.10;99.90;;;;;;6249741;22;20087;-90
2022/01/07 00:40:20;;;;;;;10.30;2.78;;;5.10;99.90;;;;;;6249744;22;20037;-90
2022/01/07 00:42:51;;;;;;;11.75;3.67;;;5.10;99.90;;;;;;6250071;22;20454;-90
2022/01/07 00:45:19;;;;;;;32.97;3.42;;;5.10;99.90;;;;;;6224620;22;20408;-90
2022/01/07 00:47:47;;;;;;;8.68;3.08;;;5.10;99.90;;;;;;6249674;22;20016;-91
2022/01/07 00:50:16;;;;;;;18.45;3.50;;;5.10;99.90;;;;;;6224214;22;20023;-90
2022/01/07 00:52:43;;;;;;;12.48;2.75;;;5.10;99.90;;;;;;6224714;22;20019;-90
2022/01/07 00:55:11;;;;;;;12.15;3.42;;;5.10;99.90;;;;;;6249416;22;20030;-89
2022/01/07 00:57:38;;;;;;;16.10;3.38;;;5.10;99.90;;;;;;6249729;22;20500;-90
2022/01/07 01:00:08;;;;;;;14.85;3.42;;;5.20;99.90;;;;;;6276683;22;20030;-91
2022/01/07 01:02:35;;;;;;;12.32;3.15;;;5.20;99.90;;;;;;6250315;22;20016;-90
2022/01/07 01:05:05;;;;;;;20.20;2.97;;;5.10;99.90;;;;;;6276614;22;20018;-90
2022/01/07 01:07:31;;;;;;;8.65;2.70;;;5.10;99.90;;;;;;6249890;22;20038;-90
2022/01/07 01:09:59;;;;;;;9.05;3.45;;;5.10;99.90;;;;;;6249896;22;20019;-90
2022/01/07 01:12:26;;;;;;;10.45;3.33;;;5.10;99.90;;;;;;6250111;22;20042;-90
2022/01/07 01:14:53;;;;;;;19.05;4.10;;;5.10;99.90;;;;;;6249660;22;20065;-90
2022/01/07 01:17:20;;;;;;;14.05;3.25;;;5.10;99.90;;;;;;6224028;22;20016;-91
2022/01/07 01:19:46;;;;;;;16.60;3.40;;;5.10;99.90;;;;;;6250941;22;20030;-90
2022/01/07 01:22:13;;;;;;;17.83;3.80;;;5.10;99.90;;;;;;6251726;22;20072;-90
2022/01/07 01:24:40;;;;;;;14.45;4.43;;;5.10;99.90;;;;;;6251857;22;20016;-90
2022/01/07 01:27:07;;;;;;;12.75;4.13;;;5.10;99.90;;;;;;6250820;22;20106;-90
2022/01/07 01:29:34;;;;;;;17.33;4.00;;;5.20;99.90;;;;;;6226698;22;20062;-90
2022/01/07 01:32:02;;;;;;;13.52;4.38;;;5.10;99.90;;;;;;6251426;22;20019;-90
2022/01/07 01:34:29;;;;;;;18.88;4.30;;;5.20;99.90;;;;;;6225968;22;20046;-90
2022/01/07 01:36:56;;;;;;;17.02;3.60;;;5.20;99.90;;;;;;6225445;22;20015;-90
2022/01/07 01:39:23;;;;;;;17.02;4.63;;;5.20;99.90;;;;;;6225744;22;20106;-90
2022/01/07 01:41:50;;;;;;;16.40;4.72;;;5.20;99.90;;;;;;6225450;22;20030;-89
2022/01/07 01:44:17;;;;;;;14.40;3.38;;;5.20;99.90;;;;;;6250567;22;20047;-91
2022/01/07 01:46:44;;;;;;;17.92;4.20;;;5.20;99.90;;;;;;6251064;22;20016;-90
2022/01/07 01:49:11;;;;;;;18.13;4.25;;;5.20;99.90;;;;;;6225531;22;20111;-90
2022/01/07 01:51:38;;;;;;;17.27;4.35;;;5.20;99.90;;;;;;6278279;22;20015;-90
2022/01/07 01:54:05;;;;;;;15.75;4.80;;;5.20;99.90;;;;;;6250504;22;20022;-90
2022/01/07 01:56:33;;;;;;;16.67;4.43;;;5.20;99.90;;;;;;6278342;22;20019;-90
2022/01/07 01:59:00;;;;;;;21.40;5.05;;;5.20;99.90;;;;;;6250794;22;20115;-90
2022/01/07 02:01:27;;;;;;;10.60;3.35;;;5.20;99.90;;;;;;6225864;22;20086;-90
2022/01/07 02:03:54;;;;;;;18.83;4.35;;;5.20;99.90;;;;;;6226373;22;20012;-90
2022/01/07 02:06:22;;;;;;;19.58;4.97;;;5.20;99.90;;;;;;6225997;22;20012;-90
2022/01/07 02:08:50;;;;;;;22.13;4.60;;;5.20;99.90;;;;;;6250575;22;20343;-90
2022/01/07 02:11:17;;;;;;;26.15;4.35;;;5.30;99.90;;;;;;6251123;22;20059;-90
2022/01/07 02:13:48;;;;;;;12.27;4.28;;;5.30;99.90;;;;;;6251252;22;20090;-89
2022/01/07 02:16:15;;;;;;;15.52;3.92;;;5.30;99.90;;;;;;6226160;22;20458;-90
2022/01/07 02:18:43;;;;;;;15.35;4.97;;;5.30;99.90;;;;;;6250722;22;20020;-90
2022/01/07 02:21:11;;;;;;;17.27;4.40;;;5.30;99.90;;;;;;6251305;22;20019;-90
2022/01/07 02:23:38;;;;;;;17.85;4.70;;;5.30;99.90;;;;;;6277946;22;20400;-90
2022/01/07 02:26:05;;;;;;;12.13;3.33;;;5.40;99.90;;;;;;6250778;22;20016;-90
2022/01/07 02:28:34;;;;;;;13.13;3.85;;;5.40;99.90;;;;;;6250165;22;20098;-89
2022/01/07 02:31:02;;;;;;;18.10;4.68;;;5.40;99.90;;;;;;6250324;22;20019;-90
2022/01/07 02:33:29;;;;;;;17.52;4.90;;;5.40;99.90;;;;;;6250678;22;20030;-90
2022/01/07 02:35:56;;;;;;;15.43;4.28;;;5.40;99.90;;;;;;6250528;22;20020;-90
2022/01/07 02:38:23;;;;;;;21.50;4.38;;;5.50;99.90;;;;;;6250328;22;20028;-90
2022/01/07 02:40:50;;;;;;;16.30;4.03;;;5.50;99.90;;;;;;6225470;22;20107;-90
2022/01/07 02:43:17;;;;;;;18.58;3.78;;;5.40;99.90;;;;;;6250987;22;20087;-90
2022/01/07 02:45:44;;;;;;;18.45;4.55;;;5.40;99.90;;;;;;6278073;22;20011;-90
2022/01/07 02:48:10;;;;;;;16.27;4.10;;;5.50;99.90;;;;;;6224737;22;20016;-90
2022/01/07 02:50:38;;;;;;;18.45;4.43;;;5.50;99.90;;;;;;6225339;22;20062;-90
2022/01/07 02:53:08;;;;;;;19.88;4.35;;;5.50;99.90;;;;;;6225369;22;20451;-89
2022/01/07 02:55:37;;;;;;;17.27;4.10;;;5.50;99.90;;;;;;6277556;22;20016;-90
2022/01/07 02:58:04;;;;;;;19.42;4.03;;;5.50;99.90;;;;;;6249965;22;20026;-90
2022/01/07 03:00:31;;;;;;;9.43;3.17;;;5.50;99.90;;;;;;6250609;22;20016;-90
2022/01/07 03:03:00;;;;;;;22.23;5.28;;;5.50;99.90;;;;;;6250048;22;20403;-90
2022/01/07 03:05:28;;;;;;;20.65;3.80;;;5.50;99.90;;;;;;6225215;22;20023;-90
2022/01/07 03:07:55;;;;;;;24.02;4.40;;;5.50;99.90;;;;;;6224360;22;20016;-90
2022/01/07 03:10:29;;;;;;;15.02;4.47;;;5.60;99.90;;;;;;6225264;22;20030;-90
2022/01/07 03:12:58;;;;;;;15.75;3.78;;;5.60;99.90;;;;;;6225113;22;20435;-90
2022/01/07 03:15:26;;;;;;;21.80;4.22;;;5.50;99.90;;;;;;6250202;22;20020;-90
2022/01/07 03:17:53;;;;;;;16.08;3.88;;;5.60;99.90;;;;;;6225423;22;20024;-90
2022/01/07 03:20:21;;;;;;;17.92;3.70;;;5.60;99.90;;;;;;6224813;22;20020;-90
2022/01/07 03:22:49;;;;;;;18.05;4.03;;;5.60;99.90;;;;;;6250444;22;20020;-90
2022/01/07 03:25:17;;;;;;;21.17;4.32;;;5.60;99.90;;;;;;6225255;22;20015;-91
2022/01/07 03:27:44;;;;;;;13.63;3.65;;;5.60;99.90;;;;;;6225778;22;20019;-90
2022/01/07 03:30:14;;;;;;;13.95;3.42;;;5.70;99.90;;;;;;6250389;22;20343;-90
2022/01/07 03:32:42;;;;;;;12.32;3.70;;;5.70;99.90;;;;;;6277170;22;20455;-90
2022/01/07 03:35:11;;;;;;;18.42;4.75;;;5.60;99.90;;;;;;6249687;22;20019;-89
2022/01/07 03:37:40;;;;;;;15.25;4.03;;;5.70;99.90;;;;;;6249762;22;20030;-90
2022/01/07 03:40:09;;;;;;;12.68;4.40;;;5.70;99.90;;;;;;6250043;22;20045;-90
2022/01/07 03:42:36;;;;;;;19.40;3.22;;;5.70;99.90;;;;;;6224300;22;20020;-89
2022/01/07 03:45:05;;;;;;;21.52;4.72;;;5.70;99.90;;;;;;6249967;22;20019;-89
2022/01/07 03:47:32;;;;;;;17.65;4.25;;;5.70;99.90;;;;;;6224989;22;20020;-90
2022/01/07 03:49:59;;;;;;;11.93;2.97;;;5.70;99.90;;;;;;6224902;22;20098;-90
2022/01/07 03:52:26;;;;;;;13.40;2.90;;;5.70;99.90;;;;;;6224758;22;20034;-89
2022/01/07 03:54:53;;;;;;;9.15;2.90;;;5.70;99.90;;;;;;6224273;22;20015;-90
2022/01/07 03:57:19;;;;;;;24.15;3.45;;;5.60;99.90;;;;;;6248982;22;20114;-90
2022/01/07 03:59:48;;;;;;;18.38;4.05;;;5.70;99.90;;;;;;6249892;22;20020;-90
2022/01/07 04:02:15;;;;;;;8.95;3.75;;;5.70;99.90;;;;;;6224866;22;20106;-89
2022/01/07 04:04:42;;;;;;;19.70;3.45;;;5.70;99.90;;;;;;6249853;22;20106;-90
2022/01/07 04:07:09;;;;;;;8.63;3.25;;;5.80;99.90;;;;;;6224046;22;20066;-89
2022/01/07 04:09:37;;;;;;;15.30;4.13;;;5.70;99.90;;;;;;6249487;22;20047;-90
2022/01/07 04:12:05;;;;;;;15.02;4.50;;;5.70;99.90;;;;;;6225040;22;20019;-89
2022/01/07 04:14:31;;;;;;;21.70;4.07;;;5.80;99.90;;;;;;6224878;22;20081;-90
2022/01/07 04:17:01;;;;;;;9.82;3.40;;;5.80;99.90;;;;;;6276650;22;20033;-89
2022/01/07 04:19:28;;;;;;;20.08;4.57;;;5.80;99.90;;;;;;6249577;22;20027;-89
2022/01/07 04:21:55;;;;;;;17.50;4.25;;;5.70;99.90;;;;;;6224434;22;20026;-89
2022/01/07 04:24:22;;;;;;;21.38;4.75;;;5.80;99.90;;;;;;6250550;22;20466;-89
2022/01/07 04:26:49;;;;;;;19.77;4.18;;;5.70;99.90;;;;;;6224340;22;20020;-90
2022/01/07 04:29:16;;;;;;;17.25;4.38;;;5.80;99.90;;;;;;6224341;22;20020;-90
2022/01/07 04:31:43;;;;;;;19.70;3.58;;;5.80;99.90;;;;;;6224325;22;20024;-90
2022/01/07 04:34:10;;;;;;;15.50;4.15;;;5.80;99.90;;;;;;6250160;22;20069;-89
2022/01/07 04:36:37;;;;;;;30.27;5.68;;;5.80;99.90;;;;;;6224596;22;20062;-89
2022/01/07 04:39:04;;;;;;;20.60;4.38;;;5.80;99.90;;;;;;6276516;22;20489;-89
2022/01/07 04:41:31;;;;;;;19.15;3.78;;;5.80;99.90;;;;;;6224415;22;20027;-90
2022/01/07 04:44:00;;;;;;;12.20;4.13;;;5.80;99.90;;;;;;6276410;22;20106;-90
2022/01/07 04:46:27;;;;;;;10.10;3.15;;;5.90;99.90;;;;;;6223798;22;20469;-89
2022/01/07 04:48:54;;;;;;;21.27;4.03;;;5.90;99.90;;;;;;6248979;22;20328;-89
2022/01/07 04:51:21;;;;;;;36.05;5.32;;;5.80;99.90;;;;;;6224670;22;20447;-89
2022/01/07 04:53:48;;;;;;;16.00;2.97;;;5.90;99.90;;;;;;6225942;22;20024;-90
2022/01/07 04:56:15;;;;;;;18.60;3.80;;;5.90;99.90;;;;;;6251331;22;20024;-90
2022/01/07 04:58:42;;;;;;;18.60;3.47;;;5.90;99.90;;;;;;6251015;22;20374;-89
2022/01/07 05:01:08;;;;;;;28.65;3.30;;;5.90;99.90;;;;;;6251502;22;20047;-90
2022/01/07 05:03:35;;;;;;;22.90;4.35;;;6.00;99.90;;;;;;6251569;22;20015;-90
2022/01/07 05:06:22;;;;;;;23.27;3.17;;;6.00;99.90;;;;;;6252269;22;20328;-89
2022/01/07 05:08:49;;;;;;;23.23;2.88;;;6.00;99.90;;;;;;6278110;22;20023;-89
2022/01/07 05:11:16;;;;;;;6.60;2.42;;;6.10;99.90;;;;;;6252147;22;20454;-91
2022/01/07 05:13:43;;;;;;;11.55;2.63;;;6.00;99.90;;;;;;6251916;22;20019;-89
2022/01/07 05:16:10;;;;;;;8.70;2.30;;;6.00;99.90;;;;;;6251537;22;20119;-89
2022/01/07 05:18:37;;;;;;;18.10;2.13;;;5.90;99.90;;;;;;6278222;22;20024;-89
2022/01/07 05:21:03;;;;;;;17.40;2.03;;;6.00;99.90;;;;;;6226017;22;20106;-90
2022/01/07 05:23:30;;;;;;;17.30;2.70;;;5.90;99.90;;;;;;6278397;22;20039;-90
2022/01/07 05:25:57;;;;;;;22.02;2.30;;;5.90;99.90;;;;;;6251692;22;20026;-91
2022/01/07 05:28:25;;;;;;;23.98;3.28;;;5.80;99.90;;;;;;6226042;22;20043;-92
2022/01/07 05:30:52;;;;;;;12.15;2.55;;;5.80;99.90;;;;;;6226992;22;20015;-92
2022/01/07 05:33:19;;;;;;;16.35;2.80;;;5.80;99.90;;;;;;6226423;22;20023;-93
2022/01/07 05:35:51;;;;;;;14.20;2.15;;;5.80;99.90;;;;;;6251816;22;20392;-90
2022/01/07 05:38:18;;;;;;;24.55;3.40;;;5.80;99.90;;;;;;6226669;22;20465;-92
2022/01/07 05:40:48;;;;;;;23.00;2.17;;;5.80;99.90;;;;;;6252770;22;20094;-92
2022/01/07 05:43:15;;;;;;;8.57;1.80;;;5.80;99.90;;;;;;6251741;22;20039;-91
2022/01/07 05:45:45;;;;;;;21.15;2.25;;;5.80;99.90;;;;;;6229280;22;20022;-89
2022/01/07 05:48:13;;;;;;;17.88;2.22;;;5.80;99.90;;;;;;6277908;22;20016;-88
2022/01/07 05:50:40;;;;;;;20.50;2.38;;;5.80;99.90;;;;;;6278119;22;20022;-89
2022/01/07 05:53:07;;;;;;;11.32;2.28;;;5.80;99.90;;;;;;6225914;22;20016;-88
2022/01/07 05:55:34;;;;;;;11.48;2.28;;;5.90;99.90;;;;;;6251345;22;20030;-88
2022/01/07 05:58:01;;;;;;;16.63;1.65;;;5.80;99.90;;;;;;6277365;22;20073;-89
2022/01/07 06:00:28;;;;;;;10.30;2.03;;;5.80;99.90;;;;;;6250530;22;20020;-90
2022/01/07 06:02:55;;;;;;;13.82;2.30;;;5.80;99.90;;;;;;6250566;22;20027;-88
2022/01/07 06:05:22;;;;;;;16.20;1.50;;;5.80;99.90;;;;;;6276902;22;20015;-88
2022/01/07 06:07:49;;;;;;;16.73;3.55;;;5.90;99.90;;;;;;6277935;22;20112;-89
2022/01/07 06:10:17;;;;;;;20.85;2.15;;;5.80;99.90;;;;;;6250759;22;20043;-90
2022/01/07 06:12:43;;;;;;;13.52;1.25;;;5.80;99.90;;;;;;6277501;22;20015;-88
2022/01/07 06:15:10;;;;;;;6.25;1.55;;;5.70;99.90;;;;;;6250718;22;20020;-89
2022/01/07 06:17:37;;;;;;;8.20;1.35;;;5.80;99.90;;;;;;6250829;22;20454;-90
2022/01/07 06:20:06;;;;;;;16.10;2.20;;;5.80;99.90;;;;;;6250912;22;20075;-89
2022/01/07 06:22:34;;;;;;;18.80;2.08;;;5.80;99.90;;;;;;6250870;22;20066;-88
2022/01/07 06:25:02;;;;;;;5.88;1.30;;;5.70;99.90;;;;;;6251187;22;20012;-89
2022/01/07 06:27:29;;;;;;;11.95;2.20;;;5.80;99.90;;;;;;6225721;22;20429;-89
2022/01/07 06:29:57;;;;;;;17.15;1.70;;;5.80;99.90;;;;;;6250482;22;20022;-88
2022/01/07 06:32:24;;;;;;;12.80;2.38;;;5.80;99.90;;;;;;6225193;22;20436;-88
2022/01/07 06:34:52;;;;;;;14.27;1.45;;;5.80;99.90;;;;;;6225535;22;20323;-88
2022/01/07 06:37:20;;;;;;;12.88;1.50;;;5.80;99.90;;;;;;6224927;22;20115;-89
2022/01/07 06:39:47;;;;;;;11.13;1.25;;;5.80;99.90;;;;;;6277545;22;20015;-88
2022/01/07 06:42:14;;;;;;;9.10;1.63;;;5.70;99.90;;;;;;6250560;22;20014;-88
2022/01/07 06:44:41;;;;;;;7.45;1.83;;;5.70;99.90;;;;;;6250556;22;20071;-87
2022/01/07 06:47:08;;;;;;;11.90;1.15;;;5.70;99.90;;;;;;6250826;22;20454;-88
2022/01/07 06:49:34;;;;;;;13.15;1.85;;;5.70;99.90;;;;;;6250201;22;20098;-88
2022/01/07 06:52:02;;;;;;;7.07;1.17;;;5.70;99.90;;;;;;6250445;22;20043;-88
2022/01/07 06:54:31;;;;;;;6.93;1.55;;;5.70;99.90;;;;;;6250393;22;20029;-89
2022/01/07 06:56:58;;;;;;;11.95;0.98;;;5.70;99.90;;;;;;6250263;22;20106;-88
2022/01/07 06:59:25;;;;;;;15.23;1.73;;;5.80;99.90;;;;;;6277291;22;20019;-89
2022/01/07 07:01:52;;;;;;;11.05;2.42;;;5.80;99.90;;;;;;6250275;22;20463;-88
2022/01/07 07:04:20;;;;;;;13.55;2.40;;;5.80;99.90;;;;;;6277483;22;20016;-89
2022/01/07 07:06:47;;;;;;;18.83;2.35;;;5.70;99.90;;;;;;6251140;22;20015;-87
2022/01/07 07:09:15;;;;;;;16.15;1.70;;;5.70;99.90;;;;;;6250161;22;20071;-88
2022/01/07 07:11:43;;;;;;;10.35;1.00;;;5.70;99.90;;;;;;6277508;22;20439;-89
2022/01/07 07:14:11;;;;;;;11.38;1.85;;;5.70;99.90;;;;;;6250293;22;20016;-89
2022/01/07 07:16:39;;;;;;;13.13;2.17;;;5.70;99.90;;;;;;6276741;22;20020;-88
2022/01/07 07:19:06;;;;;;;19.95;1.55;;;5.70;99.90;;;;;;6277201;22;20432;-89
2022/01/07 07:21:32;;;;;;;13.88;1.52;;;5.70;99.90;;;;;;6277130;22;20086;-89
2022/01/07 07:24:01;;;;;;;11.07;1.58;;;5.80;99.90;;;;;;6250427;22;20024;-87
2022/01/07 07:26:28;;;;;;;9.88;1.13;;;5.70;99.90;;;;;;6250490;22;20007;-88
2022/01/07 07:28:55;;;;;;;13.25;1.73;;;5.70;99.90;;;;;;6249938;22;20020;-89
2022/01/07 07:31:22;;;;;;;15.27;2.17;;;5.70;99.90;;;;;;6224750;22;20019;-88
2022/01/07 07:36:27;;;;;;;10.07;2.38;;;5.70;99.90;;;;;;6249734;22;20031;-88
2022/01/07 07:38:55;;;;;;;7.45;2.05;;;5.70;99.90;;;;;;6276793;22;20065;-87
2022/01/07 07:41:23;;;;;;;16.10;1.55;;;5.70;99.90;;;;;;6224208;22;20026;-87
2022/01/07 07:43:50;;;;;;;9.80;1.73;;;5.70;99.90;;;;;;6277132;22;20016;-88
2022/01/07 07:46:18;;;;;;;13.45;1.10;;;5.70;99.90;;;;;;6249779;22;20390;-89
2022/01/07 07:48:46;;;;;;;12.82;1.38;;;5.70;99.90;;;;;;6249741;22;20396;-88
2022/01/07 07:51:14;;;;;;;17.48;1.70;;;5.70;99.90;;;;;;6250079;22;20020;-89
2022/01/07 07:53:41;;;;;;;14.77;2.03;;;5.70;99.90;;;;;;6249882;22;20028;-87
2022/01/07 07:56:10;;;;;;;12.25;1.42;;;5.70;99.90;;;;;;6276708;22;20019;-89
2022/01/07 07:58:39;;;;;;;11.13;1.77;;;5.70;99.90;;;;;;6275957;22;20090;-90
2022/01/07 08:01:06;;;;;;;8.13;0.95;;;5.80;99.90;;;;;;6223170;22;20023;-88
2022/01/07 08:03:34;;;;;;;11.75;1.38;;;5.80;99.90;;;;;;6249193;22;20023;-89
2022/01/07 08:06:01;;;;;;;16.15;1.42;;;5.80;99.90;;;;;;6246195;22;20042;-88
2022/01/07 08:08:28;;;;;;;7.63;1.73;;;5.80;99.90;;;;;;6248166;22;20022;-89
2022/01/07 08:10:59;;;;;;;15.90;1.08;;;5.80;99.90;;;;;;6276745;22;20011;-88
2022/01/07 08:13:29;;;;;;;25.58;3.03;;;5.80;99.90;;;;;;6249636;22;20148;-88
2022/01/07 08:16:04;;;;;;;12.55;2.35;;;5.80;99.90;;;;;;6277216;22;20431;-90
2022/01/07 08:18:34;;;;;;;6.07;1.48;;;5.80;99.90;;;;;;6249294;22;20020;-88
2022/01/07 08:21:04;;;;;;;12.82;1.83;;;5.80;99.90;;;;;;6276640;22;20039;-87
2022/01/07 08:23:32;;;;;;;10.43;0.90;;;5.80;99.90;;;;;;6276789;22;20020;-88
2022/01/07 08:25:59;;;;;;;10.23;1.60;;;5.80;99.90;;;;;;6249833;22;20016;-88
2022/01/07 08:28:31;;;;;;;5.90;1.75;;;5.80;99.90;;;;;;6277297;22;20016;-87
2022/01/07 08:36:18;;;;;;;11.43;1.35;;;5.70;99.90;;;;;;6279031;22;20039;-89
2022/01/07 08:38:47;;;;;;;16.30;1.60;;;5.80;99.90;;;;;;6251380;22;20442;-90
2022/01/07 08:41:14;;;;;;;10.98;2.15;;;5.80;99.90;;;;;;6278633;22;20018;-88
2022/01/07 08:43:41;;;;;;;11.50;1.08;;;5.80;99.90;;;;;;6226675;22;20107;-88
2022/01/07 08:46:09;;;;;;;16.38;1.92;;;5.80;99.90;;;;;;6251808;22;20016;-88
2022/01/07 08:48:37;;;;;;;6.55;0.95;;;5.80;99.90;;;;;;6251567;22;20012;-90
2022/01/07 08:51:06;;;;;;;11.05;1.33;;;5.80;99.90;;;;;;6278670;22;20090;-88
2022/01/07 08:53:33;;;;;;;7.05;1.15;;;5.80;99.90;;;;;;6226381;22;20023;-89
2022/01/07 08:56:01;;;;;;;8.23;1.25;;;5.90;99.90;;;;;;6278587;22;20024;-90
2022/01/07 08:58:27;;;;;;;7.22;1.10;;;5.80;99.90;;;;;;6225773;22;20020;-90
2022/01/07 09:00:56;;;;;;;9.70;1.83;;;5.80;99.90;;;;;;6251551;22;20024;-88
2022/01/07 09:03:24;;;;;;;7.78;2.42;;;5.90;99.90;;;;;;6251202;22;20020;-89
2022/01/07 09:05:51;;;;;;;6.65;1.52;;;5.90;99.90;;;;;;6226368;22;20023;-87
2022/01/07 09:08:18;;;;;;;8.75;1.25;;;5.90;99.90;;;;;;6251218;22;20019;-89
2022/01/07 09:10:45;;;;;;;5.80;1.40;;;5.90;99.90;;;;;;6226325;22;20015;-88
2022/01/07 09:13:12;;;;;;;15.55;1.20;;;5.80;99.90;;;;;;6278778;22;20016;-90
2022/01/07 09:15:38;;;;;;;4.55;1.27;;;5.80;99.90;;;;;;6226089;22;20028;-89
2022/01/07 09:18:10;;;;;;;10.20;2.17;;;5.80;99.90;;;;;;6278074;22;20012;-89
2022/01/07 09:20:37;;;;;;;3.58;1.10;;;5.90;99.90;;;;;;6251854;22;20095;-89
2022/01/07 09:23:04;;;;;;;8.60;1.13;;;5.90;99.90;;;;;;6251395;22;20012;-88
2022/01/07 09:25:31;;;;;;;16.35;1.85;;;5.90;99.90;;;;;;6251638;22;20078;-90
2022/01/07 09:27:58;;;;;;;8.88;1.20;;;5.90;99.90;;;;;;6277657;22;20040;-87
2022/01/07 09:30:26;;;;;;;9.35;1.52;;;5.90;99.90;;;;;;6251087;22;20096;-89
2022/01/07 09:32:53;;;;;;;8.63;1.50;;;5.90;99.90;;;;;;6251585;22;20443;-88
2022/01/07 09:35:20;;;;;;;10.43;1.20;;;5.90;99.90;;;;;;6251298;22;20473;-90
2022/01/07 09:37:47;;;;;;;8.75;1.50;;;6.00;99.90;;;;;;6251309;22;20035;-88
2022/01/07 09:40:14;;;;;;;15.15;1.63;;;6.00;99.90;;;;;;6278240;22;20020;-90
2022/01/07 09:43:01;;;;;;;11.05;1.88;;;6.00;99.90;;;;;;6277886;22;20019;-90
2022/01/07 09:45:31;;;;;;;9.60;2.28;;;6.00;99.90;;;;;;6250769;22;20471;-88
2022/01/07 09:48:01;;;;;;;11.45;1.40;;;6.00;99.90;;;;;;6250990;22;20122;-88
2022/01/07 09:50:30;;;;;;;11.85;1.30;;;6.00;99.90;;;;;;6278383;22;20012;-89
2022/01/07 09:52:57;;;;;;;6.10;1.00;;;6.00;99.90;;;;;;6251455;22;20027;-88
2022/01/07 09:55:24;;;;;;;9.45;1.40;;;6.00;99.90;;;;;;6278484;22;20474;-89
2022/01/07 09:57:51;;;;;;;12.65;1.52;;;5.90;99.90;;;;;;6251005;22;20167;-88
2022/01/07 10:00:18;;;;;;;7.85;1.27;;;5.90;99.90;;;;;;6251213;22;20098;-88
2022/01/07 10:03:03;;;;;;;9.45;1.17;;;6.00;99.90;;;;;;6251143;22;20016;-88
2022/01/07 10:05:30;;;;;;;3.92;0.85;;;6.10;99.90;;;;;;6278185;22;20011;-88
2022/01/07 10:08:22;;;;;;;12.35;1.55;;;6.10;99.90;;;;;;6251170;22;20046;-89
2022/01/07 10:11:19;;;;;;;3.67;1.30;;;6.10;99.90;;;;;;6278724;22;20153;-89
2022/01/07 10:13:50;;;;;;;6.57;1.33;;;6.10;99.90;;;;;;6251373;22;20020;-89
2022/01/07 10:16:20;;;;;;;5.43;1.15;;;6.00;99.90;;;;;;6250998;22;20102;-89
2022/01/07 10:18:51;;;;;;;7.15;2.03;;;6.00;99.90;;;;;;6250246;22;20043;-89
2022/01/07 10:21:19;;;;;;;6.53;0.77;;;6.00;99.90;;;;;;6277898;22;20024;-88
2022/01/07 10:23:47;;;;;;;6.57;1.20;;;6.00;99.90;;;;;;6225912;22;20016;-90
2022/01/07 10:26:19;;;;;;;12.13;2.00;;;6.00;99.90;;;;;;6252092;22;20067;-88
2022/01/07 10:28:47;;;;;;;7.50;1.58;;;6.00;99.90;;;;;;6250851;22;20490;-89
2022/01/07 10:31:23;;;;;;;8.80;0.70;;;6.10;99.90;;;;;;6250759;22;20390;-89
2022/01/07 10:33:53;;;;;;;5.75;1.73;;;6.10;99.90;;;;;;6226171;22;20023;-88
2022/01/07 10:36:23;;;;;;;9.18;0.93;;;6.10;99.90;;;;;;6278186;22;20026;-89
2022/01/07 10:38:53;;;;;;;7.45;1.05;;;6.10;99.90;;;;;;6250038;22;20042;-90
2022/01/07 10:41:22;;;;;;;7.60;0.55;;;6.20;99.90;;;;;;6278129;22;20020;-89
2022/01/07 10:43:50;;;;;;;5.47;0.60;;;6.20;99.90;;;;;;6250484;22;20103;-87
2022/01/07 10:46:20;;;;;;;10.43;0.90;;;6.20;99.90;;;;;;6250658;22;20447;-88
2022/01/07 10:48:53;;;;;;;8.60;0.68;;;6.20;99.90;;;;;;6224971;22;20016;-89
2022/01/07 10:51:23;;;;;;;13.80;1.92;;;6.20;99.90;;;;;;6250068;22;20016;-88
2022/01/07 10:53:58;;;;;;;14.30;1.40;;;6.30;99.90;;;;;;6277638;22;20043;-89
2022/01/07 10:56:47;;;;;;;9.82;0.77;;;6.40;99.90;;;;;;6251320;22;20020;-89
2022/01/07 10:59:16;;;;;;;11.63;1.00;;;6.40;99.90;;;;;;6277272;22;20015;-89
2022/01/07 11:01:56;;;;;;;9.75;1.05;;;6.40;99.90;;;;;;6250512;22;20358;-89
2022/01/07 11:04:30;;;;;;;7.82;1.45;;;6.30;99.90;;;;;;6277830;22;20023;-90
2022/01/07 11:06:58;;;;;;;10.65;0.90;;;6.30;99.90;;;;;;6250553;22;20110;-88
2022/01/07 11:09:25;;;;;;;8.80;0.77;;;6.30;99.90;;;;;;6277287;22;20500;-89
2022/01/07 11:11:54;;;;;;;13.07;1.35;;;6.30;99.90;;;;;;6250697;22;20016;-88
2022/01/07 11:14:27;;;;;;;5.20;0.68;;;6.30;99.90;;;;;;6250774;22;20086;-90
2022/01/07 11:16:57;;;;;;;3.50;0.77;;;6.20;99.90;;;;;;6277107;22;20019;-88
2022/01/07 11:19:37;;;;;;;10.18;1.48;;;6.20;99.90;;;;;;6250831;22;20018;-88
2022/01/07 11:22:07;;;;;;;7.57;0.88;;;6.20;99.90;;;;;;6250004;22;20021;-88
2022/01/07 11:24:38;;;;;;;9.98;2.22;;;6.30;99.90;;;;;;6250174;22;20439;-88
2022/01/07 11:27:11;;;;;;;11.55;2.13;;;6.30;99.90;;;;;;6250067;22;20015;-89
2022/01/07 11:29:52;;;;;;;12.00;1.00;;;6.30;99.90;;;;;;6250358;22;20493;-88
2022/01/07 11:32:25;;;;;;;10.02;2.67;;;6.40;99.90;;;;;;6250172;22;20020;-88
2022/01/07 11:34:53;;;;;;;10.30;1.08;;;6.30;99.90;;;;;;6250262;22;20019;-89
2022/01/07 11:37:38;;;;;;;6.25;0.80;;;6.40;99.90;;;;;;6224581;22;20023;-89
2022/01/07 11:40:06;;;;;;;5.63;1.20;;;6.40;99.90;;;;;;6249632;22;20024;-88
2022/01/07 11:42:45;;;;;;;10.98;2.03;;;6.40;99.90;;;;;;6250225;22;20411;-89
2022/01/07 11:45:37;;;;;;;10.27;1.40;;;6.40;99.90;;;;;;6225128;22;20406;-89
2022/01/07 11:48:13;;;;;;;7.47;1.20;;;6.40;99.90;;;;;;6224986;22;20026;-88
2022/01/07 11:50:56;;;;;;;5.47;1.67;;;6.40;99.90;;;;;;6277200;22;20388;-90
2022/01/07 11:53:25;;;;;;;4.35;0.55;;;6.30;99.90;;;;;;6249995;22;20031;-89
2022/01/07 11:55:58;;;;;;;9.93;1.40;;;6.30;99.90;;;;;;6250504;22;20022;-88
2022/01/07 11:58:39;;;;;;;3.50;1.13;;;6.30;99.90;;;;;;6249194;22;20024;-90
2022/01/07 12:01:07;;;;;;;8.32;0.88;;;6.30;99.90;;;;;;6250015;22;20024;-89
2022/01/07 12:03:34;;;;;;;9.82;0.70;;;6.30;99.90;;;;;;6224113;22;20012;-90
2022/01/07 12:06:27;;;;;;;12.40;1.15;;;6.30;99.90;;;;;;6250205;22;20047;-88
2022/01/07 12:09:10;;;;;;;14.03;1.50;;;6.30;99.90;;;;;;6276326;22;20092;-89
2022/01/07 12:11:40;;;;;;;6.32;1.05;;;6.30;99.90;;;;;;6250111;22;20042;-89
2022/01/07 12:14:15;;;;;;;12.23;1.17;;;6.30;99.90;;;;;;6277237;22;20509;-89
2022/01/07 12:16:44;;;;;;;7.13;0.75;;;6.40;99.90;;;;;;6224928;22;20024;-87
2022/01/07 12:19:18;;;;;;;6.45;1.10;;;6.40;99.90;;;;;;6249852;22;20023;-89
2022/01/07 12:21:46;;;;;;;6.75;0.60;;;6.40;99.90;;;;;;6223988;22;20516;-88
2022/01/07 12:24:27;;;;;;;6.55;0.77;;;6.50;99.90;;;;;;6224313;22;20449;-88
2022/01/07 12:27:04;;;;;;;11.50;2.17;;;6.40;99.90;;;;;;6250030;22;20050;-89
2022/01/07 12:29:33;;;;;;;15.63;1.23;;;6.40;99.90;;;;;;6224637;22;20390;-90
2022/01/07 12:32:03;;;;;;;4.15;0.43;;;6.40;99.90;;;;;;6199563;22;20027;-89
2022/01/07 12:34:33;;;;;;;7.75;0.85;;;6.50;99.90;;;;;;6250151;22;20016;-90
2022/01/07 12:37:03;;;;;;;6.35;0.80;;;6.50;99.90;;;;;;6249958;22;20012;-90
2022/01/07 12:39:42;;;;;;;5.72;0.93;;;6.50;99.90;;;;;;6276737;22;20457;-90
2022/01/07 12:42:10;;;;;;;6.15;0.85;;;6.50;99.90;;;;;;6250686;22;20016;-88
2022/01/07 12:44:43;;;;;;;9.73;1.50;;;6.50;99.90;;;;;;6224521;22;20043;-90
2022/01/07 12:47:14;;;;;;;2.33;0.98;;;6.50;99.90;;;;;;6249964;22;20015;-90
2022/01/07 12:49:41;;;;;;;3.85;0.77;;;6.50;99.90;;;;;;6250237;22;20443;-88
2022/01/07 12:52:30;;;;;;;6.15;1.00;;;6.50;99.90;;;;;;6250100;22;20011;-88
2022/01/07 12:55:00;;;;;;;7.78;0.55;;;6.50;99.90;;;;;;6276957;22;20048;-89
2022/01/07 12:57:33;;;;;;;5.53;1.23;;;6.40;99.90;;;;;;6249274;22;20019;-89
2022/01/07 13:00:11;;;;;;;8.00;1.08;;;6.40;99.90;;;;;;6224531;22;20023;-90
2022/01/07 13:02:40;;;;;;;3.88;0.57;;;6.40;99.90;;;;;;6276570;22;20046;-90
2022/01/07 13:05:19;;;;;;;7.40;0.80;;;6.50;99.90;;;;;;6277609;22;20012;-89
2022/01/07 13:07:48;;;;;;;7.93;1.00;;;6.50;99.90;;;;;;6249480;22;20011;-88